createdAt,value
2023-04-29T00:04:26.584Z,105064.31
2023-04-29T00:09:29.521Z,105047.47
2023-04-29T00:14:32.230Z,104987.69
2023-04-29T00:19:36.434Z,104971.50
2023-04-29T00:24:39.174Z,104970.75
2023-04-29T00:29:41.889Z,104935.69
2023-04-29T00:34:46.100Z,104914.53
2023-04-29T00:39:49.230Z,104868.16
2023-04-29T00:44:51.964Z,104856.53
2023-04-29T00:49:56.034Z,104812.66
2023-04-29T00:54:59.750Z,104805.13
2023-04-29T01:00:02.742Z,104836.75
2023-04-29T01:05:07.666Z,104843.88
2023-04-29T01:10:11.712Z,104931.91
2023-04-29T01:15:21.673Z,105091.31
2023-04-29T01:20:27.233Z,105235.66
2023-04-29T01:25:31.492Z,105424.66
2023-04-29T01:30:51.895Z,105532.97
2023-04-29T01:36:15.588Z,105600.16
2023-04-29T01:41:24.615Z,105684.31
2023-04-29T01:46:31.964Z,105785.47
2023-04-29T01:51:35.328Z,105803.94
2023-04-29T01:56:40.091Z,105886.91
2023-04-29T02:01:51.573Z,105956.28
2023-04-29T02:06:55.193Z,106031.47
2023-04-29T02:12:01.166Z,106060.59
2023-04-29T02:17:06.403Z,106110.75
2023-04-29T02:22:12.438Z,106096.41
2023-04-29T02:27:18.550Z,106028.66
2023-04-29T02:32:21.277Z,105973.72
2023-04-29T02:37:24.483Z,105917.78
2023-04-29T02:42:28.561Z,105907.50
2023-04-29T02:47:31.354Z,105920.75
2023-04-29T02:52:34.158Z,105985.75
2023-04-29T02:57:38.483Z,106077.50
2023-04-29T03:02:41.546Z,106121.75
2023-04-29T03:07:44.786Z,106198.22
2023-04-29T03:12:48.829Z,106274.38
2023-04-29T03:17:52.083Z,106361.94
2023-04-29T03:22:54.801Z,106414.09
2023-04-29T03:27:58.881Z,106568.22
2023-04-29T03:33:02.312Z,106693.16
2023-04-29T03:38:06.415Z,106923.81
2023-04-29T03:43:13.862Z,106921.34
2023-04-29T03:48:17.173Z,107057.06
2023-04-29T03:53:20.763Z,107278.56
2023-04-29T03:58:25.085Z,107412.59
2023-04-29T04:03:28.768Z,107538.44
2023-04-29T04:08:33.476Z,107778.88
2023-04-29T04:13:50.853Z,107941.31
2023-04-29T04:18:55.160Z,108170.97
2023-04-29T04:23:58.049Z,108368.03
2023-04-29T04:29:02.550Z,108597.09
2023-04-29T04:34:14.121Z,108765.75
2023-04-29T04:39:17.116Z,108991.16
2023-04-29T04:44:21.646Z,109177.19
2023-04-29T04:49:37.243Z,109423.19
2023-04-29T04:54:40.187Z,109671.06
2023-04-29T04:59:52.879Z,109852.19
2023-04-29T05:04:56.082Z,110087.59
2023-04-29T05:10:02.276Z,110242.28
2023-04-29T05:15:09.488Z,110485.03
2023-04-29T05:20:13.411Z,110628.22
2023-04-29T05:25:16.224Z,110706.69
2023-04-29T05:30:20.996Z,110846.88
2023-04-29T05:35:23.950Z,110947.53
2023-04-29T05:40:27.146Z,111075.84
2023-04-29T05:45:40.088Z,111074.84
2023-04-29T05:50:42.944Z,111066.28
2023-04-29T05:55:46.502Z,111103.22
2023-04-29T06:00:51.533Z,111239.75
2023-04-29T06:05:59.121Z,111398.06
2023-04-29T06:11:37.561Z,111576.22
2023-04-29T06:16:42.093Z,111754.78
2023-04-29T06:21:45.116Z,111824.94
2023-04-29T06:26:48.724Z,111954.56
2023-04-29T06:31:54.102Z,112119.47
2023-04-29T06:36:56.951Z,112246.88
2023-04-29T06:42:22.373Z,112465.81
2023-04-29T06:47:58.574Z,112659.00
2023-04-29T06:53:13.322Z,112683.56
2023-04-29T06:58:17.608Z,112799.72
2023-04-29T07:03:21.761Z,112724.09
2023-04-29T07:08:24.466Z,112784.16
2023-04-29T07:13:29.155Z,112863.97
2023-04-29T07:18:33.195Z,113151.88
2023-04-29T07:23:35.935Z,113179.75
2023-04-29T07:28:38.687Z,113340.88
2023-04-29T07:33:42.795Z,113721.72
2023-04-29T07:38:45.830Z,114007.00
2023-04-29T07:43:48.518Z,114146.81
2023-04-29T07:48:52.990Z,114462.31
2023-04-29T07:53:55.825Z,114513.13
2023-04-29T07:58:58.541Z,114502.28
2023-04-29T08:04:03.151Z,114794.81
2023-04-29T08:09:09.134Z,115035.16
2023-04-29T08:14:11.869Z,115039.44
2023-04-29T08:19:15.980Z,115469.38
2023-04-29T08:24:18.725Z,115462.34
2023-04-29T08:29:21.471Z,115445.53
2023-04-29T08:34:25.628Z,115331.84
2023-04-29T08:39:29.756Z,115430.00
2023-04-29T08:44:33.966Z,114930.22
2023-04-29T08:49:39.280Z,114546.47
2023-04-29T08:54:42.009Z,114068.50
2023-04-29T08:59:44.831Z,114069.41
2023-04-29T09:04:55.904Z,113606.97
2023-04-29T09:09:59.078Z,113634.81
2023-04-29T09:15:01.847Z,113311.75
2023-04-29T09:20:29.353Z,112677.06
2023-04-29T09:25:32.564Z,111913.06
2023-04-29T09:30:47.124Z,110850.88
2023-04-29T09:35:51.224Z,110150.97
2023-04-29T09:40:59.524Z,109774.00
2023-04-29T09:46:02.837Z,109388.84
2023-04-29T09:51:07.156Z,108583.38
2023-04-29T09:56:09.883Z,107946.06
2023-04-29T10:01:14.215Z,107586.25
2023-04-29T10:06:19.048Z,106712.00
2023-04-29T10:11:22.194Z,106205.72
2023-04-29T10:16:32.963Z,105497.38
2023-04-29T10:21:38.124Z,105096.28
2023-04-29T10:26:42.609Z,104899.13
2023-04-29T10:31:45.764Z,104384.72
2023-04-29T10:36:50.320Z,103916.47
2023-04-29T10:41:53.287Z,103522.59
2023-04-29T10:47:19.845Z,103254.13
2023-04-29T10:52:23.892Z,103057.78
2023-04-29T10:57:26.768Z,102747.28
2023-04-29T11:02:29.490Z,102572.00
2023-04-29T11:07:33.557Z,102341.47
2023-04-29T11:12:36.246Z,102197.41
2023-04-29T11:17:39.391Z,102076.47
2023-04-29T11:22:43.554Z,101928.88
2023-04-29T11:27:48.420Z,101899.31
2023-04-29T11:32:52.007Z,101820.19
2023-04-29T11:37:56.549Z,101813.03
2023-04-29T11:42:59.317Z,101794.59
2023-04-29T11:48:02.165Z,101793.28
2023-04-29T11:53:06.262Z,101754.25
2023-04-29T11:58:08.996Z,101721.66
2023-04-29T12:03:14.827Z,101659.63
2023-04-29T12:08:22.098Z,101606.91
2023-04-29T12:13:25.946Z,101570.19
2023-04-29T12:18:30.943Z,101536.28
2023-04-29T12:23:36.940Z,101513.38
2023-04-29T12:28:42.013Z,101506.41
2023-04-29T12:33:45.463Z,101485.19
2023-04-29T12:38:49.779Z,101464.56
2023-04-29T12:43:52.557Z,101431.19
2023-04-29T12:48:55.275Z,101424.69
2023-04-29T12:53:59.402Z,101419.84
2023-04-29T12:59:07.421Z,101433.44
2023-04-29T13:04:11.709Z,101436.47
2023-04-29T13:09:18.985Z,101427.41
2023-04-29T13:14:22.473Z,101428.13
2023-04-29T13:19:41.064Z,101438.78
2023-04-29T13:24:49.270Z,101415.78
2023-04-29T13:29:52.037Z,101390.72
2023-04-29T13:34:55.006Z,101368.97
2023-04-29T13:39:59.144Z,101372.16
2023-04-29T13:45:01.925Z,101341.88
2023-04-29T14:00:47.125Z,101300.34
2023-04-29T14:05:42.486Z,101294.41
2023-04-29T14:10:47.884Z,101293.81
2023-04-29T14:15:50.694Z,101290.19
2023-04-29T14:20:54.139Z,101283.31
2023-04-29T14:26:11.601Z,101281.22
2023-04-29T14:31:20.909Z,101283.88
2023-04-29T14:36:23.852Z,101299.53
2023-04-29T14:41:27.956Z,101298.97
2023-04-29T14:46:31.178Z,101288.38
2023-04-29T14:51:33.881Z,101282.75
2023-04-29T14:56:38.063Z,101285.00
2023-04-29T15:01:40.869Z,101279.13
2023-04-29T15:06:43.665Z,101301.50
2023-04-29T15:11:47.730Z,101292.78
2023-04-29T15:16:50.622Z,101315.31
2023-04-29T15:21:53.564Z,101295.06
2023-04-29T15:26:57.697Z,101288.72
2023-04-29T15:32:00.705Z,101271.31
2023-04-29T15:37:03.494Z,101248.97
2023-04-29T15:42:08.225Z,101271.66
2023-04-29T15:47:11.586Z,101277.59
2023-04-29T15:52:14.403Z,101278.50
2023-04-29T15:57:18.432Z,101279.47
2023-04-29T16:02:21.477Z,101287.53
2023-04-29T16:07:24.370Z,101282.00
2023-04-29T16:12:28.520Z,101291.03
2023-04-29T16:17:32.612Z,101281.41
2023-04-29T16:22:35.336Z,101281.56
2023-04-29T16:27:39.676Z,101275.44
2023-04-29T16:32:43.003Z,101258.16
2023-04-29T16:37:45.743Z,101259.91
2023-04-29T16:42:49.749Z,101252.75
2023-04-29T16:47:52.766Z,101251.00
2023-04-29T16:52:55.446Z,101276.81
2023-04-29T16:57:59.561Z,101265.63
2023-04-29T17:03:02.367Z,101285.78
2023-04-29T17:08:05.513Z,101308.47
2023-04-29T17:13:09.759Z,101326.84
2023-04-29T17:18:12.671Z,101336.59
2023-04-29T17:23:15.360Z,101342.16
2023-04-29T17:28:19.428Z,101344.75
2023-04-29T17:33:22.149Z,101355.13
2023-04-29T17:38:24.814Z,101373.66
2023-04-29T17:43:32.266Z,101390.19
2023-04-29T17:48:35.098Z,101393.59
2023-04-29T17:53:37.810Z,101412.97
2023-04-29T17:58:41.861Z,101418.19
2023-04-29T18:03:46.380Z,101431.22
2023-04-29T18:08:49.642Z,101428.38
2023-04-29T18:13:54.760Z,101429.31
2023-04-29T18:18:57.778Z,101431.22
2023-04-29T18:24:00.734Z,101437.16
2023-04-29T18:29:04.794Z,101439.94
2023-04-29T18:34:07.460Z,101457.34
2023-04-29T18:39:10.142Z,101465.06
2023-04-29T18:44:14.193Z,101472.53
2023-04-29T18:49:17.814Z,101469.56
2023-04-29T18:54:20.874Z,101451.97
2023-04-29T18:59:26.818Z,101448.69
2023-04-29T19:04:29.598Z,101445.69
2023-04-29T19:09:33.008Z,101463.63
2023-04-29T19:14:38.399Z,101463.06
2023-04-29T19:19:41.174Z,101480.81
2023-04-29T19:24:44.072Z,101485.66
2023-04-29T19:29:48.292Z,101496.97
2023-04-29T19:34:51.057Z,101506.78
2023-04-29T19:39:54.095Z,101503.72
2023-04-29T19:44:58.339Z,101500.31
2023-04-29T19:50:01.171Z,101513.38
2023-04-29T19:55:04.843Z,101525.84
2023-04-29T20:00:11.661Z,101529.53
2023-04-29T20:05:15.260Z,101516.03
2023-04-29T20:10:18.016Z,101497.03
2023-04-29T20:15:22.168Z,101495.50
2023-04-29T20:20:26.021Z,101500.50
2023-04-29T20:25:28.876Z,101491.47
2023-04-29T20:30:33.133Z,101507.88
2023-04-29T20:35:35.872Z,101519.44
2023-04-29T20:40:38.606Z,101524.28
2023-04-29T20:45:42.843Z,101532.53
2023-04-29T20:50:45.596Z,101534.25
2023-04-29T20:55:48.272Z,101539.91
2023-04-29T21:00:52.298Z,101548.56
2023-04-29T21:05:55.159Z,101551.25
2023-04-29T21:10:57.885Z,101551.09
2023-04-29T21:16:02.123Z,101544.88
2023-04-29T21:21:05.031Z,101549.50
2023-04-29T21:26:07.718Z,101543.44
2023-04-29T21:31:15.991Z,101558.75
2023-04-29T21:36:18.841Z,101554.59
2023-04-29T21:41:26.628Z,101564.41
2023-04-29T21:46:33.146Z,101559.28
2023-04-29T21:51:36.311Z,101570.41
2023-04-29T21:56:39.003Z,101584.47
2023-04-29T22:02:00.068Z,101604.19
2023-04-29T22:07:02.937Z,101625.47
2023-04-29T22:12:05.889Z,101637.47
2023-04-29T22:17:09.921Z,101654.88
2023-04-29T22:22:12.582Z,101683.53
2023-04-29T22:27:15.784Z,101701.72
2023-04-29T22:32:19.900Z,101718.91
2023-04-29T22:37:22.703Z,101733.97
2023-04-29T22:42:25.498Z,101741.75
2023-04-29T22:47:30.061Z,101759.09
2023-04-29T22:52:33.066Z,101766.63
2023-04-29T22:57:35.955Z,101771.19
2023-04-29T23:02:40.413Z,101784.19
2023-04-29T23:07:43.137Z,101800.91
2023-04-29T23:12:45.836Z,101804.94
2023-04-29T23:17:49.878Z,101819.25
2023-04-29T23:22:52.606Z,101830.22
2023-04-29T23:27:55.635Z,101843.91
2023-04-29T23:32:59.877Z,101863.91
2023-04-29T23:38:02.581Z,101865.63
2023-04-29T23:43:05.460Z,101887.78
2023-04-29T23:48:10.607Z,101898.53
2023-04-29T23:53:13.326Z,101911.88
2023-04-29T23:58:16.014Z,101932.84
